Time;durP1;ratioP1;P1;durP2;ratioP2;P2;SDS_P1;SDS_P2;PMS_P1;PMS_P2;Temp;Humidity;BMP_temperature;BMP_pressure;BME280_temperature;BME280_humidity;BME280_pressure;Samples;Min_cycle;Max_cycle;Signal;HPM_P1;HPM_P2
2020/12/01 00:00:33;;;;;;;12.88;6.72;;;20.30;42.50;;;;;;5052217;28;20111;-66
2020/12/01 00:02:59;;;;;;;8.73;4.65;;;20.30;42.50;;;;;;5046457;28;20033;-65
2020/12/01 00:05:25;;;;;;;10.05;5.65;;;20.30;42.50;;;;;;5048401;28;20522;-66
2020/12/01 00:07:51;;;;;;;7.93;4.47;;;20.30;42.60;;;;;;5048742;28;20025;-66
2020/12/01 00:10:17;;;;;;;9.32;5.18;;;20.20;42.60;;;;;;5047477;28;20030;-66
2020/12/01 00:12:43;;;;;;;8.95;4.80;;;20.30;42.70;;;;;;5060139;28;20056;-65
2020/12/01 00:15:10;;;;;;;7.88;3.95;;;20.30;42.60;;;;;;5050712;28;20021;-65
2020/12/01 00:17:35;;;;;;;6.85;3.95;;;20.30;42.60;;;;;;5038965;28;20167;-66
2020/12/01 00:20:02;;;;;;;2.50;1.38;;;20.30;42.60;;;;;;5046217;28;20096;-66
2020/12/01 00:22:28;;;;;;;5.00;2.90;;;20.30;42.50;;;;;;5054164;28;20032;-66
2020/12/01 00:24:53;;;;;;;2.20;1.27;;;20.30;42.60;;;;;;5056437;28;20029;-66
2020/12/01 00:27:19;;;;;;;5.25;3.10;;;20.30;42.60;;;;;;5044150;28;20044;-66
2020/12/01 00:29:45;;;;;;;3.53;2.33;;;20.30;42.50;;;;;;5039471;28;20022;-65
2020/12/01 00:32:11;;;;;;;4.13;1.92;;;20.30;42.50;;;;;;5056781;28;20067;-65
2020/12/01 00:34:37;;;;;;;3.08;1.95;;;20.30;42.50;;;;;;5054956;28;20040;-65
2020/12/01 00:37:03;;;;;;;4.00;1.20;;;20.30;42.50;;;;;;5045740;28;20477;-65
2020/12/01 00:39:29;;;;;;;3.08;1.52;;;20.30;42.50;;;;;;5035299;28;20057;-65
2020/12/01 00:41:55;;;;;;;4.45;1.95;;;20.30;42.50;;;;;;5043567;28;20067;-65
2020/12/01 00:44:21;;;;;;;3.45;1.02;;;20.30;42.50;;;;;;5044078;28;20040;-66
2020/12/01 00:46:47;;;;;;;2.38;1.42;;;20.30;42.50;;;;;;5042750;28;20028;-65
2020/12/01 00:49:12;;;;;;;1.52;1.13;;;20.30;42.60;;;;;;5044873;28;20025;-64
2020/12/01 00:51:38;;;;;;;3.08;1.20;;;20.30;42.60;;;;;;5046151;28;20029;-66
2020/12/01 00:54:04;;;;;;;2.70;1.58;;;20.30;42.60;;;;;;5037051;28;20037;-65
2020/12/01 00:56:30;;;;;;;2.33;0.75;;;20.30;42.60;;;;;;5044846;28;20524;-65
2020/12/01 00:58:55;;;;;;;0.47;0.40;;;20.30;42.70;;;;;;5038342;28;20147;-66
2020/12/01 01:01:21;;;;;;;4.57;1.20;;;20.30;42.80;;;;;;5053566;28;20028;-65
2020/12/01 01:03:47;;;;;;;2.22;1.02;;;20.30;42.70;;;;;;5028903;28;20033;-66
2020/12/01 01:06:14;;;;;;;1.10;0.65;;;20.30;42.70;;;;;;5045275;28;20044;-66
2020/12/01 01:08:39;;;;;;;1.92;1.10;;;20.30;42.80;;;;;;5052052;28;20032;-66
2020/12/01 01:11:09;;;;;;;1.65;0.95;;;20.20;42.70;;;;;;5039344;28;20039;-65
2020/12/01 01:13:38;;;;;;;2.60;0.70;;;20.20;42.80;;;;;;5046371;28;20048;-66
2020/12/01 01:16:04;;;;;;;3.63;0.68;;;20.20;42.80;;;;;;5043342;28;20688;-66
2020/12/01 01:18:30;;;;;;;1.02;0.73;;;20.20;42.80;;;;;;5054138;28;20025;-66
2020/12/01 01:20:56;;;;;;;1.75;0.70;;;20.20;42.80;;;;;;5039971;28;20033;-66
2020/12/01 01:23:22;;;;;;;1.48;0.77;;;20.20;42.80;;;;;;5058486;28;20032;-65
2020/12/01 01:25:47;;;;;;;2.50;0.73;;;20.20;42.90;;;;;;5044570;28;20404;-65
2020/12/01 01:28:13;;;;;;;1.08;0.60;;;20.20;42.90;;;;;;5059595;28;20100;-65
2020/12/01 01:30:40;;;;;;;1.13;0.43;;;20.20;43.00;;;;;;5050805;28;20033;-65
2020/12/01 01:33:09;;;;;;;0.90;0.30;;;20.20;43.00;;;;;;5054772;28;20126;-65
2020/12/01 01:35:35;;;;;;;0.35;0.32;;;20.20;43.10;;;;;;5042252;28;20125;-65
2020/12/01 01:38:02;;;;;;;3.47;0.50;;;20.10;43.00;;;;;;5048519;28;20051;-65
2020/12/01 01:40:28;;;;;;;1.40;0.32;;;20.10;43.10;;;;;;5036365;28;20033;-65
2020/12/01 01:42:54;;;;;;;2.03;0.50;;;20.10;43.10;;;;;;5049258;28;20027;-65
2020/12/01 01:45:37;;;;;;;0.38;0.30;;;20.10;43.10;;;;;;5039064;28;20025;-65
2020/12/01 01:48:03;;;;;;;3.35;0.65;;;20.10;43.10;;;;;;5039489;28;20048;-65
2020/12/01 01:50:29;;;;;;;2.70;0.50;;;20.10;43.20;;;;;;5037206;28;20480;-66
2020/12/01 01:52:55;;;;;;;1.95;0.28;;;20.10;43.20;;;;;;5045329;28;20009;-66
2020/12/01 01:55:25;;;;;;;1.35;0.40;;;20.10;43.10;;;;;;5040249;28;20028;-65
2020/12/01 01:57:53;;;;;;;2.58;0.40;;;20.10;43.30;;;;;;5039945;28;20119;-65
2020/12/01 02:00:56;;;;;;;0.98;0.28;;;20.10;43.20;;;;;;5045790;28;20028;-65
2020/12/01 02:03:42;;;;;;;0.75;0.35;;;20.10;43.10;;;;;;5057798;28;20033;-65
2020/12/01 02:06:21;;;;;;;2.72;0.70;;;20.10;43.10;;;;;;5045426;28;20511;-65
2020/12/01 02:08:50;;;;;;;3.00;0.55;;;20.10;43.10;;;;;;5059005;28;20029;-65
2020/12/01 02:11:16;;;;;;;2.78;0.40;;;20.10;43.10;;;;;;5035199;28;20523;-65
2020/12/01 02:13:52;;;;;;;3.00;0.50;;;20.10;43.10;;;;;;5050258;28;20124;-65
2020/12/01 02:16:19;;;;;;;3.95;0.80;;;20.10;43.10;;;;;;5039430;28;20057;-65
2020/12/01 02:18:45;;;;;;;2.85;0.50;;;20.10;43.10;;;;;;5040777;28;20017;-65
2020/12/01 02:21:40;;;;;;;2.90;0.60;;;20.10;43.10;;;;;;5039891;28;20021;-66
2020/12/01 02:24:10;;;;;;;3.53;0.63;;;20.10;43.10;;;;;;5067912;28;20423;-65
2020/12/01 02:26:36;;;;;;;1.88;0.40;;;20.10;43.00;;;;;;5050302;28;20036;-65
2020/12/01 02:29:07;;;;;;;3.60;0.77;;;20.10;43.10;;;;;;5077053;28;20036;-65
2020/12/01 02:31:32;;;;;;;2.55;0.50;;;20.10;43.00;;;;;;5060891;28;20037;-65
2020/12/01 02:33:58;;;;;;;3.78;0.65;;;20.10;43.00;;;;;;5070565;28;20036;-65
2020/12/01 02:36:24;;;;;;;3.60;0.80;;;20.10;43.00;;;;;;5069094;28;20047;-65
2020/12/01 02:38:53;;;;;;;2.70;0.57;;;20.10;43.00;;;;;;5072864;28;20430;-65
2020/12/01 02:41:18;;;;;;;3.08;0.55;;;20.10;43.10;;;;;;5074605;28;20048;-65
2020/12/01 02:43:44;;;;;;;6.32;1.08;;;20.10;43.00;;;;;;5068227;28;20037;-70
2020/12/01 02:46:10;;;;;;;3.38;0.40;;;20.10;43.00;;;;;;5062074;28;20032;-70
2020/12/01 02:48:36;;;;;;;2.78;0.57;;;20.10;43.10;;;;;;5067158;28;20039;-70
2020/12/01 02:51:02;;;;;;;3.25;0.80;;;20.10;43.00;;;;;;5065443;28;20123;-66
2020/12/01 02:53:27;;;;;;;1.63;0.40;;;20.10;43.00;;;;;;5060688;28;20040;-65
2020/12/01 02:55:53;;;;;;;3.75;0.47;;;20.10;43.10;;;;;;5046100;28;20044;-65
2020/12/01 02:58:19;;;;;;;3.35;0.70;;;20.00;43.00;;;;;;5079847;28;20029;-65
2020/12/01 03:00:44;;;;;;;2.80;0.55;;;20.10;43.00;;;;;;5050402;28;20038;-65
2020/12/01 03:03:11;;;;;;;8.07;0.90;;;20.00;43.00;;;;;;5038026;28;20021;-65
2020/12/01 03:05:37;;;;;;;2.90;0.70;;;20.00;43.10;;;;;;5044331;28;20488;-65
2020/12/01 03:08:02;;;;;;;2.75;0.40;;;20.00;43.10;;;;;;5048805;28;20060;-65
2020/12/01 03:10:28;;;;;;;3.38;0.75;;;20.00;43.10;;;;;;5037619;28;20018;-65
2020/12/01 03:12:54;;;;;;;3.35;0.60;;;20.00;43.10;;;;;;5036926;28;20103;-65
2020/12/01 03:15:20;;;;;;;2.85;0.40;;;20.00;43.10;;;;;;5044306;28;20144;-65
2020/12/01 03:17:46;;;;;;;1.75;0.43;;;20.00;43.10;;;;;;5044103;28;20077;-65
2020/12/01 03:20:12;;;;;;;3.67;0.85;;;20.00;43.10;;;;;;5049118;28;20020;-65
2020/12/01 03:22:38;;;;;;;0.22;0.17;;;20.00;43.10;;;;;;5039925;28;20574;-65
2020/12/01 03:25:04;;;;;;;2.13;0.35;;;20.00;43.20;;;;;;5057366;28;20028;-65
2020/12/01 03:27:29;;;;;;;3.13;0.60;;;19.90;43.20;;;;;;5040330;28;20048;-65
2020/12/01 03:29:55;;;;;;;3.17;0.57;;;20.00;43.20;;;;;;5043895;28;20389;-65
2020/12/01 03:32:23;;;;;;;3.90;0.60;;;19.90;43.20;;;;;;5041618;28;20074;-66
2020/12/01 03:34:49;;;;;;;6.85;1.15;;;19.90;43.20;;;;;;5044775;28;20059;-66
2020/12/01 03:37:15;;;;;;;1.42;0.60;;;19.90;43.20;;;;;;5047453;28;20106;-65
2020/12/01 03:39:41;;;;;;;5.72;0.98;;;19.90;43.20;;;;;;5049591;28;20056;-65
2020/12/01 03:42:06;;;;;;;5.15;1.10;;;19.90;43.30;;;;;;5057997;28;20548;-65
2020/12/01 03:44:32;;;;;;;6.00;0.80;;;19.90;43.20;;;;;;5051119;28;20018;-65
2020/12/01 03:46:58;;;;;;;5.03;0.30;;;19.90;43.20;;;;;;5051740;28;20417;-65
2020/12/01 03:49:24;;;;;;;4.45;1.05;;;19.90;43.20;;;;;;5038852;28;20031;-65
2020/12/01 03:51:50;;;;;;;0.95;0.08;;;20.00;43.30;;;;;;5049432;28;20098;-65
2020/12/01 03:54:15;;;;;;;1.45;0.35;;;19.90;43.20;;;;;;5047935;28;20079;-66
2020/12/01 03:56:41;;;;;;;4.80;0.43;;;19.90;43.10;;;;;;5046648;28;20438;-65
2020/12/01 03:59:07;;;;;;;0.63;0.30;;;19.90;43.10;;;;;;5052047;28;20504;-65
2020/12/01 04:01:33;;;;;;;5.65;1.08;;;19.90;43.10;;;;;;5051393;28;20025;-65
2020/12/01 04:03:59;;;;;;;4.13;0.95;;;19.90;43.10;;;;;;5048196;28;20033;-65
2020/12/01 04:06:24;;;;;;;6.00;0.80;;;19.90;43.10;;;;;;5048944;28;20111;-66
2020/12/01 04:08:50;;;;;;;6.13;0.85;;;19.90;43.10;;;;;;5056355;28;20111;-65
2020/12/01 04:11:16;;;;;;;3.53;0.75;;;19.90;43.10;;;;;;5051534;28;20032;-65
2020/12/01 04:13:42;;;;;;;1.05;0.38;;;19.90;43.20;;;;;;5040912;28;20048;-65
2020/12/01 04:16:08;;;;;;;7.15;1.15;;;19.90;43.10;;;;;;5045992;28;20067;-65
2020/12/01 04:18:33;;;;;;;9.73;0.80;;;19.90;43.20;;;;;;5044325;28;20034;-65
2020/12/01 04:20:59;;;;;;;2.40;0.75;;;19.90;43.10;;;;;;5050328;28;20021;-66
2020/12/01 04:23:25;;;;;;;4.63;0.75;;;19.90;43.80;;;;;;5047722;28;20033;-66
2020/12/01 04:25:51;;;;;;;8.13;1.10;;;19.90;43.20;;;;;;5050008;28;20047;-65
2020/12/01 04:28:17;;;;;;;3.22;0.73;;;19.90;43.20;;;;;;5053350;28;20037;-65
2020/12/01 04:30:43;;;;;;;12.00;1.08;;;19.90;43.20;;;;;;5047429;28;20027;-65
2020/12/01 04:33:08;;;;;;;5.47;1.02;;;19.90;43.10;;;;;;5044894;28;20109;-65
2020/12/01 04:35:34;;;;;;;5.13;1.00;;;19.90;43.20;;;;;;5053051;28;20107;-65
2020/12/01 04:38:05;;;;;;;6.10;1.17;;;19.90;43.20;;;;;;5057930;28;20078;-71
2020/12/01 04:40:34;;;;;;;5.13;0.70;;;19.80;43.10;;;;;;5048420;28;20071;-70
2020/12/01 04:43:18;;;;;;;5.57;0.68;;;19.80;43.20;;;;;;5043278;28;20069;-70
2020/12/01 04:45:45;;;;;;;5.47;1.13;;;19.80;43.20;;;;;;5033346;28;20024;-71
2020/12/01 04:48:23;;;;;;;5.75;0.82;;;19.80;43.20;;;;;;5035060;28;20415;-71
2020/12/01 04:50:53;;;;;;;3.53;0.85;;;19.80;43.20;;;;;;5044363;28;20024;-70
2020/12/01 04:53:45;;;;;;;2.47;0.70;;;19.80;43.20;;;;;;5046998;28;20051;-71
2020/12/01 04:56:35;;;;;;;2.00;0.57;;;19.80;43.20;;;;;;5054638;28;20036;-71
2020/12/01 04:59:42;;;;;;;1.73;0.40;;;19.80;43.30;;;;;;5055897;28;20044;-72
2020/12/01 05:02:26;;;;;;;;;;;19.80;43.30;;;;;;5074734;28;20048;-70
2020/12/01 05:05:27;;;;;;;1.45;0.40;;;19.70;43.30;;;;;;5073547;28;19909;-71
2020/12/01 05:08:20;;;;;;;1.17;0.40;;;19.70;43.40;;;;;;5073027;28;20407;-70
2020/12/01 05:10:47;;;;;;;1.90;0.30;;;19.80;43.40;;;;;;5007959;28;20041;-69
2020/12/01 05:13:22;;;;;;;1.20;0.60;;;19.80;44.00;;;;;;5000842;28;20421;-70
2020/12/01 05:15:51;;;;;;;1.17;0.40;;;19.80;43.40;;;;;;4992575;28;20037;-65
2020/12/01 05:18:22;;;;;;;1.35;0.30;;;19.80;43.40;;;;;;4977740;28;20038;-65
2020/12/01 05:20:56;;;;;;;0.35;0.30;;;19.90;43.40;;;;;;5006217;28;20026;-65
2020/12/01 05:23:33;;;;;;;4.95;0.70;;;19.90;43.20;;;;;;5003093;28;20058;-65
2020/12/01 05:26:07;;;;;;;0.30;0.30;;;20.00;43.20;;;;;;5010613;28;20763;-66
2020/12/01 05:28:44;;;;;;;2.28;0.30;;;20.00;43.10;;;;;;5002240;28;20049;-65
2020/12/01 05:31:10;;;;;;;0.20;0.20;;;20.10;43.10;;;;;;5011125;28;20030;-65
2020/12/01 05:33:36;;;;;;;1.65;0.28;;;20.10;43.00;;;;;;4994998;28;20034;-71
2020/12/01 05:36:23;;;;;;;0.77;0.22;;;20.10;43.00;;;;;;4999793;28;20034;-71
2020/12/01 05:39:11;;;;;;;0.90;0.40;;;20.20;43.00;;;;;;4967935;28;20034;-71
2020/12/01 05:41:37;;;;;;;2.28;0.30;;;20.30;42.90;;;;;;4977208;28;20451;-71
2020/12/01 05:44:06;;;;;;;0.47;0.10;;;20.30;42.80;;;;;;4981072;28;20053;-71
2020/12/01 05:46:35;;;;;;;0.52;0.35;;;20.30;42.80;;;;;;4983809;28;20506;-70
2020/12/01 05:49:28;;;;;;;0.30;0.30;;;20.30;42.70;;;;;;5035218;28;20033;-70
2020/12/01 05:51:58;;;;;;;1.33;0.40;;;20.40;42.70;;;;;;5042735;28;20026;-70
2020/12/01 05:54:32;;;;;;;0.10;0.10;;;20.40;42.70;;;;;;5042890;28;20045;-70
2020/12/01 05:56:57;;;;;;;0.57;0.57;;;20.40;42.70;;;;;;5036619;28;20031;-71
2020/12/01 05:59:26;;;;;;;0.93;0.13;;;20.40;42.60;;;;;;5049122;28;20025;-71
2020/12/01 06:01:57;;;;;;;2.08;0.25;;;20.40;42.60;;;;;;5044964;28;20546;-71
2020/12/01 06:04:26;;;;;;;0.98;0.30;;;20.50;42.60;;;;;;5045132;28;20029;-71
2020/12/01 06:07:07;;;;;;;2.05;0.22;;;20.50;42.60;;;;;;5052150;28;20043;-70
2020/12/01 06:09:38;;;;;;;0.35;0.35;;;20.50;42.60;;;;;;5047759;28;20107;-70
2020/12/01 06:12:18;;;;;;;0.13;0.10;;;20.50;42.60;;;;;;5050514;28;20469;-70
2020/12/01 06:14:48;;;;;;;0.10;0.10;;;20.50;42.50;;;;;;5028329;28;20048;-69
2020/12/01 06:17:15;;;;;;;1.98;0.47;;;20.50;42.60;;;;;;5034321;28;20036;-70
2020/12/01 06:20:04;;;;;;;0.60;0.57;;;20.50;42.60;;;;;;5053622;28;20467;-70
2020/12/01 06:22:48;;;;;;;0.88;0.30;;;20.50;42.60;;;;;;5048699;28;20090;-71
2020/12/01 06:25:24;;;;;;;0.05;0.05;;;20.60;42.60;;;;;;5046162;28;20040;-70
2020/12/01 06:28:13;;;;;;;3.97;0.40;;;20.60;42.60;;;;;;5048603;28;20025;-71
2020/12/01 06:31:16;;;;;;;2.83;0.30;;;20.60;42.70;;;;;;5046589;28;20033;-70
2020/12/01 06:33:58;;;;;;;0.65;0.22;;;20.60;42.70;;;;;;5048600;28;20477;-70
2020/12/01 06:37:04;;;;;;;0.17;0.17;;;20.60;42.70;;;;;;5043695;28;20093;-70
2020/12/01 06:39:45;;;;;;;0.20;0.15;;;20.60;42.70;;;;;;5050050;28;20067;-70
2020/12/01 06:42:30;;;;;;;0.20;0.20;;;20.60;42.70;;;;;;5049678;28;20018;-70
2020/12/01 06:45:03;;;;;;;1.00;0.38;;;20.60;42.70;;;;;;5048587;28;20029;-70
2020/12/01 06:47:30;;;;;;;1.85;0.20;;;20.60;42.70;;;;;;5052481;28;20017;-70
2020/12/01 06:50:06;;;;;;;1.00;0.20;;;20.60;42.60;;;;;;5041831;28;20560;-70
2020/12/01 06:52:32;;;;;;;0.73;0.20;;;20.60;42.70;;;;;;5038314;28;20048;-70
2020/12/01 06:54:58;;;;;;;1.17;0.30;;;20.60;42.60;;;;;;5046715;28;20040;-70
2020/12/01 06:57:33;;;;;;;0.30;0.28;;;20.60;42.70;;;;;;5052244;28;20054;-70
2020/12/01 06:59:59;;;;;;;1.45;0.30;;;20.60;42.70;;;;;;5046116;28;20095;-70
2020/12/01 07:02:26;;;;;;;0.28;0.20;;;20.60;42.70;;;;;;5049818;28;20438;-69
2020/12/01 07:05:05;;;;;;;0.85;0.30;;;20.60;42.70;;;;;;5047625;28;20512;-69
2020/12/01 07:07:33;;;;;;;2.30;0.30;;;20.60;42.70;;;;;;5044405;28;20483;-71
2020/12/01 07:09:58;;;;;;;2.25;0.40;;;20.60;42.70;;;;;;5047495;28;20079;-70
2020/12/01 07:12:46;;;;;;;0.30;0.30;;;20.60;42.80;;;;;;5051451;28;20025;-70
2020/12/01 07:15:13;;;;;;;1.13;0.17;;;20.60;42.80;;;;;;5056060;28;20029;-69
2020/12/01 07:17:59;;;;;;;0.38;0.32;;;20.60;42.80;;;;;;5062624;28;20040;-71
2020/12/01 07:20:39;;;;;;;0.47;0.30;;;20.60;42.80;;;;;;5047746;28;20036;-70
2020/12/01 07:23:22;;;;;;;0.85;0.20;;;20.60;42.80;;;;;;5047818;28;20035;-71
2020/12/01 07:26:05;;;;;;;1.08;0.32;;;20.60;42.90;;;;;;5053069;28;20119;-69
2020/12/01 07:28:47;;;;;;;0.80;0.25;;;20.60;43.00;;;;;;5042449;28;20061;-69
2020/12/01 07:31:22;;;;;;;0.25;0.25;;;20.60;42.90;;;;;;5050745;28;20026;-69
2020/12/01 07:33:51;;;;;;;2.35;0.32;;;20.60;43.00;;;;;;5057211;28;20108;-70
2020/12/01 07:36:39;;;;;;;1.15;0.60;;;20.60;43.00;;;;;;5052535;28;20029;-70
2020/12/01 07:39:26;;;;;;;1.52;0.50;;;20.70;43.10;;;;;;5038792;28;20029;-70
2020/12/01 07:42:00;;;;;;;4.75;0.55;;;20.70;43.00;;;;;;5042261;28;20500;-70
2020/12/01 07:44:30;;;;;;;2.72;0.60;;;20.70;42.90;;;;;;5055552;28;20054;-69
2020/12/01 07:47:20;;;;;;;0.50;0.30;;;20.80;42.90;;;;;;5050888;28;20021;-70
2020/12/01 07:50:20;;;;;;;0.30;0.25;;;20.70;42.90;;;;;;5066526;28;20040;-70
2020/12/01 07:52:47;;;;;;;1.20;0.40;;;20.70;42.90;;;;;;5047329;28;20123;-70
2020/12/01 07:55:26;;;;;;;2.67;0.52;;;20.70;42.90;;;;;;5045680;28;20059;-70
2020/12/01 07:57:59;;;;;;;0.52;0.43;;;20.70;43.00;;;;;;5059676;28;20036;-70
2020/12/01 08:00:25;;;;;;;1.17;0.50;;;20.70;43.00;;;;;;5077616;28;20056;-70
2020/12/01 08:02:58;;;;;;;1.63;0.47;;;20.70;43.00;;;;;;5081469;28;20043;-70
2020/12/01 08:05:24;;;;;;;3.05;0.65;;;20.70;43.00;;;;;;5071059;28;20125;-70
2020/12/01 08:07:56;;;;;;;0.85;0.60;;;20.70;43.00;;;;;;5042009;28;20907;-70
2020/12/01 08:10:23;;;;;;;0.35;0.35;;;20.70;43.00;;;;;;5054755;28;20029;-70
2020/12/01 08:12:51;;;;;;;0.70;0.55;;;20.70;43.00;;;;;;5056838;28;20426;-70
2020/12/01 08:15:20;;;;;;;1.08;0.50;;;20.80;43.00;;;;;;5048286;28;20036;-70
2020/12/01 08:17:46;;;;;;;1.65;0.80;;;20.80;43.00;;;;;;5062494;28;20040;-70
2020/12/01 08:20:15;;;;;;;1.75;0.60;;;20.80;42.90;;;;;;5049991;28;20037;-76
2020/12/01 08:22:42;;;;;;;0.30;0.30;;;20.80;42.90;;;;;;5052083;28;20050;-76
2020/12/01 08:25:13;;;;;;;1.55;0.45;;;20.80;43.00;;;;;;5052983;28;20039;-74
2020/12/01 08:28:16;;;;;;;1.45;0.65;;;20.80;43.00;;;;;;5032562;28;20111;-80
2020/12/01 08:30:58;;;;;;;5.20;0.60;;;20.80;42.90;;;;;;5059516;28;20064;-76
2020/12/01 08:33:46;;;;;;;0.63;0.63;;;20.80;43.60;;;;;;5061727;28;20041;-75
2020/12/01 08:36:24;;;;;;;1.45;0.70;;;20.80;43.00;;;;;;5049757;28;20045;-79
2020/12/01 08:39:08;;;;;;;2.05;1.00;;;20.80;43.10;;;;;;5053544;28;20099;-79
2020/12/01 08:41:54;;;;;;;1.88;0.90;;;20.80;43.20;;;;;;5068247;28;20030;-76
2020/12/01 08:44:29;;;;;;;7.63;0.88;;;20.80;43.20;;;;;;5056076;28;20031;-75
2020/12/01 08:46:55;;;;;;;2.47;0.90;;;20.80;43.30;;;;;;5057992;28;20095;-74
2020/12/01 08:49:24;;;;;;;2.08;1.02;;;20.80;43.50;;;;;;5036602;28;20503;-72
2020/12/01 08:51:57;;;;;;;6.53;1.55;;;20.80;43.60;;;;;;5039039;28;20575;-74
2020/12/01 08:54:31;;;;;;;4.63;0.95;;;20.80;43.50;;;;;;5066607;28;20025;-73
2020/12/01 08:57:09;;;;;;;3.35;1.10;;;20.80;43.50;;;;;;5054096;28;20035;-74
2020/12/01 08:59:46;;;;;;;4.40;1.27;;;20.80;43.60;;;;;;5053034;28;20028;-75
2020/12/01 09:02:12;;;;;;;3.30;1.00;;;20.80;43.50;;;;;;5049701;28;20026;-75
2020/12/01 09:04:38;;;;;;;2.22;0.45;;;20.90;43.60;;;;;;5045648;28;20128;-74
2020/12/01 09:07:14;;;;;;;3.42;1.15;;;20.80;43.50;;;;;;5060212;28;20035;-74
2020/12/01 09:09:40;;;;;;;4.35;1.20;;;20.80;43.50;;;;;;5065561;28;20033;-74
2020/12/01 09:12:44;;;;;;;3.22;0.70;;;20.90;43.60;;;;;;5060918;28;20024;-74
2020/12/01 09:23:20;;;;;;;1.48;0.60;;;20.90;43.40;;;;;;5055189;28;22168;-70
2020/12/01 09:25:47;;;;;;;7.28;1.00;;;20.90;43.40;;;;;;5047366;28;20056;-71
2020/12/01 09:28:21;;;;;;;5.75;1.05;;;20.90;43.30;;;;;;5044446;28;20450;-71
2020/12/01 09:30:46;;;;;;;1.40;0.88;;;20.90;43.20;;;;;;5035987;28;20061;-72
2020/12/01 09:33:15;;;;;;;2.38;0.75;;;21.00;43.80;;;;;;5055514;28;20040;-71
2020/12/01 09:35:41;;;;;;;1.88;1.10;;;21.00;43.10;;;;;;5045938;28;20016;-69
2020/12/01 09:38:07;;;;;;;7.25;1.45;;;21.10;43.10;;;;;;5044884;28;20071;-72
2020/12/01 09:40:34;;;;;;;3.88;1.63;;;21.10;43.00;;;;;;5053945;28;20098;-69
2020/12/01 09:43:09;;;;;;;3.63;2.05;;;21.10;42.90;;;;;;5060326;28;20056;-72
2020/12/01 09:45:37;;;;;;;8.93;2.67;;;21.00;42.90;;;;;;5039362;28;20444;-72
2020/12/01 09:48:07;;;;;;;4.13;2.67;;;21.00;42.90;;;;;;5047514;28;20661;-71
2020/12/01 09:50:34;;;;;;;4.50;2.65;;;21.00;42.90;;;;;;5036976;28;20032;-71
2020/12/01 09:53:12;;;;;;;5.47;2.60;;;21.00;42.90;;;;;;5059093;28;20492;-73
2020/12/01 10:08:48;;;;;;;4.35;1.90;;;21.10;42.90;;;;;;5037168;28;20112;-71
2020/12/01 10:14:11;;;;;;;2.70;1.52;;;21.10;42.90;;;;;;5045199;28;20069;-71
2020/12/01 10:17:26;;;;;;;5.18;1.42;;;21.10;42.80;;;;;;5037954;28;20028;-67
2020/12/01 10:35:46;;;;;;;1.63;0.77;;;21.10;42.80;;;;;;5047867;28;20075;-67
2020/12/01 10:38:11;;;;;;;1.90;0.57;;;21.10;42.90;;;;;;5048943;28;20028;-67
2020/12/01 10:40:37;;;;;;;5.35;0.80;;;21.00;42.80;;;;;;5049447;28;20098;-67
2020/12/01 10:43:03;;;;;;;0.77;0.60;;;21.10;42.90;;;;;;5035893;28;20047;-67
2020/12/01 10:45:28;;;;;;;3.60;0.80;;;21.00;42.90;;;;;;5050869;28;20079;-66
2020/12/01 10:47:54;;;;;;;2.15;0.52;;;21.10;42.90;;;;;;5047006;28;20447;-67
2020/12/01 10:50:23;;;;;;;2.25;0.90;;;21.00;43.00;;;;;;5034015;28;20499;-67
2020/12/01 10:52:49;;;;;;;3.40;0.50;;;21.00;43.00;;;;;;5033112;28;20030;-67
2020/12/01 10:55:22;;;;;;;1.88;0.65;;;21.00;43.00;;;;;;5048304;28;20029;-68
2020/12/01 10:57:51;;;;;;;3.05;0.60;;;21.00;43.00;;;;;;5044363;28;20054;-70
2020/12/01 11:00:17;;;;;;;4.05;1.00;;;21.00;43.00;;;;;;5043765;28;20056;-71
2020/12/01 11:02:42;;;;;;;3.03;0.77;;;21.00;43.10;;;;;;5052790;28;20021;-72
2020/12/01 11:05:28;;;;;;;4.43;0.68;;;21.00;43.20;;;;;;5050799;28;20048;-71
2020/12/01 11:07:54;;;;;;;1.80;0.60;;;21.00;43.10;;;;;;5051205;28;20025;-72
2020/12/01 11:10:19;;;;;;;0.77;0.70;;;21.00;43.10;;;;;;5035022;28;20042;-71
2020/12/01 11:12:45;;;;;;;1.02;0.80;;;21.00;43.10;;;;;;5047365;28;20140;-72
2020/12/01 11:15:10;;;;;;;2.20;0.60;;;21.10;43.10;;;;;;5052078;28;20029;-71
2020/12/01 11:17:36;;;;;;;3.63;0.70;;;21.10;43.00;;;;;;5036213;28;20025;-71
2020/12/01 11:20:03;;;;;;;2.38;0.75;;;21.20;43.30;;;;;;5046822;28;20465;-71
2020/12/01 11:22:29;;;;;;;0.73;0.50;;;21.10;43.00;;;;;;5056063;28;20041;-70
2020/12/01 11:24:55;;;;;;;0.65;0.22;;;21.20;43.00;;;;;;5056208;28;20067;-71
2020/12/01 11:27:20;;;;;;;1.05;0.55;;;21.20;43.00;;;;;;5056655;28;20036;-72
2020/12/01 11:29:46;;;;;;;2.47;0.50;;;21.20;42.90;;;;;;5056547;28;20064;-70
2020/12/01 11:32:49;;;;;;;1.75;0.73;;;21.20;42.80;;;;;;5053688;28;20228;-69
2020/12/01 11:35:15;;;;;;;6.55;0.35;;;21.20;42.80;;;;;;5057798;28;20040;-71
2020/12/01 11:37:40;;;;;;;1.55;0.50;;;21.20;42.80;;;;;;5058294;28;20022;-71
2020/12/01 11:40:06;;;;;;;4.10;0.70;;;21.20;42.80;;;;;;5055920;28;20117;-72
2020/12/01 11:42:32;;;;;;;0.90;0.50;;;21.20;42.80;;;;;;5057273;28;20476;-70
2020/12/01 11:44:58;;;;;;;2.88;0.73;;;21.20;42.90;;;;;;5033701;28;20044;-66
2020/12/01 11:47:23;;;;;;;3.25;0.38;;;21.20;42.90;;;;;;5054640;28;20496;-67
2020/12/01 11:50:02;;;;;;;2.83;0.93;;;21.20;43.50;;;;;;5055258;28;20029;-67
2020/12/01 11:52:27;;;;;;;6.60;0.80;;;21.20;42.90;;;;;;5040525;28;20095;-77
2020/12/01 11:54:53;;;;;;;2.17;0.73;;;21.20;43.60;;;;;;5066819;28;20076;-77
2020/12/01 11:57:18;;;;;;;3.42;0.65;;;21.20;42.90;;;;;;5063377;28;20031;-76
2020/12/01 11:59:44;;;;;;;0.75;0.50;;;21.20;42.90;;;;;;5065710;28;20044;-67
2020/12/01 12:02:10;;;;;;;5.18;0.80;;;21.20;43.00;;;;;;5053312;28;20373;-66
2020/12/01 12:04:35;;;;;;;2.38;0.60;;;21.20;43.00;;;;;;5054244;28;20029;-65
2020/12/01 12:07:01;;;;;;;2.75;0.50;;;21.10;43.00;;;;;;5035532;28;20034;-67
2020/12/01 12:09:32;;;;;;;1.20;0.60;;;21.20;43.00;;;;;;5035252;28;20029;-67
2020/12/01 12:11:58;;;;;;;2.67;0.50;;;21.10;43.00;;;;;;5059282;28;20100;-68
2020/12/01 12:14:23;;;;;;;2.25;0.73;;;21.10;43.00;;;;;;5060671;28;20453;-76
2020/12/01 12:16:49;;;;;;;1.75;0.57;;;21.10;43.00;;;;;;5058808;28;20025;-75
2020/12/01 12:19:14;;;;;;;0.90;0.55;;;21.10;43.00;;;;;;5053793;28;20026;-76
2020/12/01 12:21:40;;;;;;;3.72;0.68;;;21.10;43.10;;;;;;5036714;28;20037;-75
2020/12/01 12:24:06;;;;;;;2.60;0.75;;;21.10;43.00;;;;;;5044997;28;20558;-75
2020/12/01 12:26:31;;;;;;;1.85;0.60;;;21.10;43.10;;;;;;5052509;28;20040;-76
2020/12/01 12:28:57;;;;;;;0.82;0.68;;;21.00;43.10;;;;;;5040880;28;20533;-75
2020/12/01 12:31:22;;;;;;;1.75;0.55;;;21.00;43.10;;;;;;5053644;28;20028;-75
2020/12/01 12:33:48;;;;;;;2.88;0.90;;;21.00;43.10;;;;;;5045370;28;20068;-75
2020/12/01 12:36:14;;;;;;;1.55;0.88;;;21.00;43.00;;;;;;5055370;28;20037;-77
2020/12/01 12:38:39;;;;;;;0.85;0.75;;;21.10;43.00;;;;;;5049955;28;20068;-76
2020/12/01 12:41:05;;;;;;;2.08;0.60;;;21.10;42.90;;;;;;5048017;28;20037;-75
2020/12/01 12:43:31;;;;;;;3.35;0.85;;;21.10;43.00;;;;;;5059250;28;20025;-75
2020/12/01 12:45:56;;;;;;;2.35;0.93;;;21.10;42.90;;;;;;5063040;28;20032;-76
2020/12/01 12:48:22;;;;;;;0.57;0.50;;;21.10;42.80;;;;;;5057634;28;20036;-75
2020/12/01 12:50:48;;;;;;;4.18;0.70;;;21.20;42.90;;;;;;5052013;28;20075;-76
2020/12/01 12:53:14;;;;;;;1.90;0.70;;;21.10;42.90;;;;;;5080885;28;20024;-75
2020/12/01 12:55:39;;;;;;;1.58;0.55;;;21.10;42.80;;;;;;5078804;28;20028;-75
2020/12/01 12:58:05;;;;;;;2.83;0.50;;;21.10;42.80;;;;;;5056748;28;20033;-67
2020/12/01 13:00:31;;;;;;;0.90;0.43;;;21.10;42.90;;;;;;5050696;28;20448;-67
2020/12/01 13:02:56;;;;;;;4.07;0.60;;;21.10;42.80;;;;;;5053734;28;20104;-67
2020/12/01 13:05:22;;;;;;;2.17;0.60;;;21.10;42.80;;;;;;5056161;28;20484;-65
2020/12/01 13:07:48;;;;;;;3.60;0.70;;;21.10;42.90;;;;;;5074311;28;20032;-65
2020/12/01 13:10:13;;;;;;;2.78;0.57;;;21.10;42.90;;;;;;5053700;28;20059;-65
2020/12/01 13:12:39;;;;;;;2.13;0.63;;;21.00;42.90;;;;;;5052882;28;20520;-67
2020/12/01 13:15:05;;;;;;;6.38;1.05;;;21.00;42.90;;;;;;5042739;28;20122;-66
2020/12/01 13:17:30;;;;;;;1.02;0.60;;;21.10;43.00;;;;;;5058751;28;20025;-75
2020/12/01 13:19:56;;;;;;;2.08;0.30;;;21.00;42.90;;;;;;5060853;28;20021;-74
2020/12/01 13:22:22;;;;;;;5.15;0.40;;;21.00;42.90;;;;;;5062872;28;20025;-74
2020/12/01 13:24:47;;;;;;;4.88;0.40;;;21.10;42.80;;;;;;5042380;28;20037;-74
2020/12/01 13:27:13;;;;;;;2.58;0.70;;;21.10;42.80;;;;;;5038991;28;20061;-74
2020/12/01 13:29:38;;;;;;;0.85;0.50;;;21.20;42.70;;;;;;5038983;28;20025;-74
2020/12/01 13:32:04;;;;;;;1.50;0.32;;;21.20;42.70;;;;;;5048405;28;20033;-75
2020/12/01 13:34:29;;;;;;;2.25;0.52;;;21.20;42.60;;;;;;5047436;28;20490;-75
2020/12/01 13:36:55;;;;;;;2.70;0.70;;;21.20;42.60;;;;;;5039557;28;20061;-75
2020/12/01 13:39:36;;;;;;;0.85;0.50;;;21.20;42.60;;;;;;5039598;28;20025;-75
2020/12/01 13:42:02;;;;;;;3.58;0.75;;;21.20;42.60;;;;;;5051194;28;20025;-74
2020/12/01 13:44:27;;;;;;;2.10;0.50;;;21.20;42.70;;;;;;5054051;28;20440;-74